sensor_id;sensor_type;location;lat;lon;timestamp;pressure;altitude;pressure_sealevel;temperature;humidity
46291;BME280;32023;44.444;26.006;2023-04-26T00:01:19;99239.47;;;8.88;90.54
46291;BME280;32023;44.444;26.006;2023-04-26T00:03:45;99239.50;;;8.83;90.76
46291;BME280;32023;44.444;26.006;2023-04-26T00:06:11;99232.34;;;8.82;90.77
46291;BME280;32023;44.444;26.006;2023-04-26T00:08:39;99229.34;;;8.79;90.86
46291;BME280;32023;44.444;26.006;2023-04-26T00:11:07;99226.31;;;8.75;90.96
46291;BME280;32023;44.444;26.006;2023-04-26T00:13:48;99230.97;;;8.69;91.36
46291;BME280;32023;44.444;26.006;2023-04-26T00:16:14;99226.88;;;8.67;91.60
46291;BME280;32023;44.444;26.006;2023-04-26T00:18:41;99233.19;;;8.67;92.02
46291;BME280;32023;44.444;26.006;2023-04-26T00:21:10;99228.78;;;8.61;92.06
46291;BME280;32023;44.444;26.006;2023-04-26T00:23:48;99232.06;;;8.58;92.09
46291;BME280;32023;44.444;26.006;2023-04-26T00:26:22;99237.03;;;8.51;92.72
46291;BME280;32023;44.444;26.006;2023-04-26T00:28:48;99220.81;;;8.50;92.83
46291;BME280;32023;44.444;26.006;2023-04-26T00:31:18;99230.44;;;8.47;93.06
46291;BME280;32023;44.444;26.006;2023-04-26T00:33:45;99227.16;;;8.45;93.20
46291;BME280;32023;44.444;26.006;2023-04-26T00:36:12;99226.88;;;8.47;93.06
46291;BME280;32023;44.444;26.006;2023-04-26T00:38:46;99225.22;;;8.41;93.22
46291;BME280;32023;44.444;26.006;2023-04-26T00:41:15;99235.63;;;8.39;93.54
46291;BME280;32023;44.444;26.006;2023-04-26T00:43:43;99227.13;;;8.35;93.79
46291;BME280;32023;44.444;26.006;2023-04-26T00:46:10;99226.31;;;8.30;93.94
46291;BME280;32023;44.444;26.006;2023-04-26T00:48:45;99226.31;;;8.30;94.31
46291;BME280;32023;44.444;26.006;2023-04-26T00:51:17;99229.88;;;8.30;94.35
46291;BME280;32023;44.444;26.006;2023-04-26T00:53:43;99235.06;;;8.32;94.38
46291;BME280;32023;44.444;26.006;2023-04-26T00:56:23;99226.31;;;8.30;94.45
46291;BME280;32023;44.444;26.006;2023-04-26T00:58:50;99235.06;;;8.27;94.43
46291;BME280;32023;44.444;26.006;2023-04-26T01:01:18;99232.56;;;8.25;94.52
46291;BME280;32023;44.444;26.006;2023-04-26T01:03:45;99223.81;;;8.23;94.60
46291;BME280;32023;44.444;26.006;2023-04-26T01:06:12;99217.75;;;8.21;94.51
46291;BME280;32023;44.444;26.006;2023-04-26T01:08:38;99223.78;;;8.18;94.75
46291;BME280;32023;44.444;26.006;2023-04-26T01:11:08;99229.84;;;8.15;95.08
46291;BME280;32023;44.444;26.006;2023-04-26T01:13:56;99230.91;;;8.14;95.35
46291;BME280;32023;44.444;26.006;2023-04-26T01:16:24;99236.13;;;8.10;95.71
46291;BME280;32023;44.444;26.006;2023-04-26T01:18:56;99233.13;;;8.12;95.52
46291;BME280;32023;44.444;26.006;2023-04-26T01:21:26;99241.88;;;8.14;95.60
46291;BME280;32023;44.444;26.006;2023-04-26T01:23:57;99235.88;;;8.12;95.32
46291;BME280;32023;44.444;26.006;2023-04-26T01:26:26;99228.19;;;8.14;95.37
46291;BME280;32023;44.444;26.006;2023-04-26T01:28:59;99221.88;;;8.13;95.42
46291;BME280;32023;44.444;26.006;2023-04-26T01:31:26;99234.19;;;8.06;95.48
46291;BME280;32023;44.444;26.006;2023-04-26T01:33:53;99232.00;;;8.08;95.74
46291;BME280;32023;44.444;26.006;2023-04-26T01:36:20;99225.97;;;8.06;95.71
46291;BME280;32023;44.444;26.006;2023-04-26T01:38:47;99225.97;;;8.06;95.84
46291;BME280;32023;44.444;26.006;2023-04-26T01:41:25;99220.19;;;8.02;95.81
46291;BME280;32023;44.444;26.006;2023-04-26T01:43:52;99224.84;;;8.02;95.98
46291;BME280;32023;44.444;26.006;2023-04-26T01:46:18;99227.88;;;8.05;95.91
46291;BME280;32023;44.444;26.006;2023-04-26T01:48:45;99228.69;;;8.06;95.78
46291;BME280;32023;44.444;26.006;2023-04-26T01:51:24;99227.34;;;8.03;95.59
46291;BME280;32023;44.444;26.006;2023-04-26T01:54:05;99216.63;;;7.97;95.94
46291;BME280;32023;44.444;26.006;2023-04-26T01:56:42;99218.81;;;7.95;96.13
46291;BME280;32023;44.444;26.006;2023-04-26T01:59:09;99215.25;;;7.94;96.34
46291;BME280;32023;44.444;26.006;2023-04-26T02:01:35;99213.88;;;7.92;96.34
46291;BME280;32023;44.444;26.006;2023-04-26T02:04:02;99209.47;;;7.91;96.52
46291;BME280;32023;44.444;26.006;2023-04-26T02:06:29;99210.03;;;7.88;96.61
46291;BME280;32023;44.444;26.006;2023-04-26T02:09:01;99206.44;;;7.82;96.80
46291;BME280;32023;44.444;26.006;2023-04-26T02:11:34;99197.69;;;7.80;96.93
46291;BME280;32023;44.444;26.006;2023-04-26T02:14:05;99199.34;;;7.81;97.16
46291;BME280;32023;44.444;26.006;2023-04-26T02:16:32;99207.25;;;7.83;97.35
46291;BME280;32023;44.444;26.006;2023-04-26T02:19:04;99203.16;;;7.80;96.97
46291;BME280;32023;44.444;26.006;2023-04-26T02:21:56;99221.25;;;7.81;97.14
46291;BME280;32023;44.444;26.006;2023-04-26T02:24:32;99191.94;;;7.82;96.92
46291;BME280;32023;44.444;26.006;2023-04-26T02:27:01;99195.75;;;7.81;96.93
46291;BME280;32023;44.444;26.006;2023-04-26T02:29:33;99191.38;;;7.80;96.72
46291;BME280;32023;44.444;26.006;2023-04-26T02:32:02;99188.88;;;7.78;96.62
46291;BME280;32023;44.444;26.006;2023-04-26T02:34:29;99194.91;;;7.75;96.51
46291;BME280;32023;44.444;26.006;2023-04-26T02:36:56;99193.81;;;7.71;96.77
46291;BME280;32023;44.444;26.006;2023-04-26T02:39:22;99192.97;;;7.65;97.07
46291;BME280;32023;44.444;26.006;2023-04-26T02:41:51;99190.53;;;7.69;97.09
46291;BME280;32023;44.444;26.006;2023-04-26T02:44:18;99184.75;;;7.65;97.20
46291;BME280;32023;44.444;26.006;2023-04-26T02:46:44;99180.94;;;7.66;97.18
46291;BME280;32023;44.444;26.006;2023-04-26T02:49:13;99186.09;;;7.63;97.10
46291;BME280;32023;44.444;26.006;2023-04-26T02:51:40;99188.31;;;7.61;97.17
46291;BME280;32023;44.444;26.006;2023-04-26T02:54:07;99180.88;;;7.56;97.29
46291;BME280;32023;44.444;26.006;2023-04-26T02:56:33;99188.28;;;7.56;97.50
46291;BME280;32023;44.444;26.006;2023-04-26T02:59:03;99205.00;;;7.54;97.72
46291;BME280;32023;44.444;26.006;2023-04-26T03:01:29;99206.63;;;7.55;97.85
46291;BME280;32023;44.444;26.006;2023-04-26T03:03:56;99206.63;;;7.55;98.19
46291;BME280;32023;44.444;26.006;2023-04-26T03:06:24;99201.97;;;7.51;97.98
46291;BME280;32023;44.444;26.006;2023-04-26T03:08:53;99199.25;;;7.51;97.79
46291;BME280;32023;44.444;26.006;2023-04-26T03:11:19;99199.75;;;7.48;98.10
46291;BME280;32023;44.444;26.006;2023-04-26T03:13:45;99202.22;;;7.49;98.34
46291;BME280;32023;44.444;26.006;2023-04-26T03:16:19;99208.78;;;7.48;98.30
46291;BME280;32023;44.444;26.006;2023-04-26T03:18:52;99204.94;;;7.44;98.14
46291;BME280;32023;44.444;26.006;2023-04-26T03:21:26;99197.00;;;7.43;98.54
46291;BME280;32023;44.444;26.006;2023-04-26T03:23:58;99205.47;;;7.41;98.54
46291;BME280;32023;44.444;26.006;2023-04-26T03:26:25;99212.91;;;7.46;98.61
46291;BME280;32023;44.444;26.006;2023-04-26T03:28:51;99209.91;;;7.47;98.52
46291;BME280;32023;44.444;26.006;2023-04-26T03:31:18;99210.69;;;7.48;98.35
46291;BME280;32023;44.444;26.006;2023-04-26T03:33:49;99216.19;;;7.48;97.99
46291;BME280;32023;44.444;26.006;2023-04-26T03:36:15;99213.44;;;7.48;97.88
46291;BME280;32023;44.444;26.006;2023-04-26T03:38:42;99216.75;;;7.50;97.55
46291;BME280;32023;44.444;26.006;2023-04-26T03:41:08;99219.75;;;7.48;97.28
46291;BME280;32023;44.444;26.006;2023-04-26T03:43:37;99230.19;;;7.51;97.33
46291;BME280;32023;44.444;26.006;2023-04-26T03:46:04;99227.72;;;7.50;97.07
46291;BME280;32023;44.444;26.006;2023-04-26T03:48:37;99228.00;;;7.53;97.04
46291;BME280;32023;44.444;26.006;2023-04-26T03:51:04;99236.25;;;7.58;96.70
46291;BME280;32023;44.444;26.006;2023-04-26T03:53:32;99241.97;;;7.57;96.53
46291;BME280;32023;44.444;26.006;2023-04-26T03:56:06;99234.84;;;7.56;96.23
46291;BME280;32023;44.444;26.006;2023-04-26T03:58:33;99241.16;;;7.56;96.17
46291;BME280;32023;44.444;26.006;2023-04-26T04:01:00;99244.97;;;7.55;96.18
46291;BME280;32023;44.444;26.006;2023-04-26T04:03:32;99243.06;;;7.56;95.77
46291;BME280;32023;44.444;26.006;2023-04-26T04:06:14;99249.38;;;7.56;95.76
46291;BME280;32023;44.444;26.006;2023-04-26T04:08:43;99250.50;;;7.60;95.96
46291;BME280;32023;44.444;26.006;2023-04-26T04:11:09;99246.69;;;7.66;96.02
46291;BME280;32023;44.444;26.006;2023-04-26T04:13:36;99246.16;;;7.69;95.32
46291;BME280;32023;44.444;26.006;2023-04-26T04:16:02;99258.50;;;7.77;95.00
46291;BME280;32023;44.444;26.006;2023-04-26T04:18:35;99259.63;;;7.86;94.87
46291;BME280;32023;44.444;26.006;2023-04-26T04:21:04;99262.34;;;7.86;94.49
46291;BME280;32023;44.444;26.006;2023-04-26T04:23:37;99266.22;;;7.90;94.14
46291;BME280;32023;44.444;26.006;2023-04-26T04:29:28;99272.03;;;8.04;93.39
46291;BME280;32023;44.444;26.006;2023-04-26T04:31:55;99272.03;;;8.09;93.07
46291;BME280;32023;44.444;26.006;2023-04-26T04:34:32;99279.72;;;8.12;92.46
46291;BME280;32023;44.444;26.006;2023-04-26T04:36:58;99274.78;;;8.04;92.10
46291;BME280;32023;44.444;26.006;2023-04-26T04:43:34;99286.00;;;8.02;92.42
46291;BME280;32023;44.444;26.006;2023-04-26T04:49:30;99290.16;;;8.15;92.59
46291;BME280;32023;44.444;26.006;2023-04-26T04:52:24;99296.75;;;8.24;92.43
46291;BME280;32023;44.444;26.006;2023-04-26T04:59:02;99292.13;;;8.35;91.47
46291;BME280;32023;44.444;26.006;2023-04-26T05:08:04;99317.97;;;8.59;90.46
46291;BME280;32023;44.444;26.006;2023-04-26T05:10:48;99305.09;;;8.64;90.41
46291;BME280;32023;44.444;26.006;2023-04-26T05:13:35;99308.38;;;8.72;89.93
46291;BME280;32023;44.444;26.006;2023-04-26T05:16:04;99302.91;;;8.82;89.77
46291;BME280;32023;44.444;26.006;2023-04-26T05:18:36;99293.53;;;8.88;89.17
46291;BME280;32023;44.444;26.006;2023-04-26T05:21:03;99296.03;;;8.94;89.03
46291;BME280;32023;44.444;26.006;2023-04-26T05:23:35;99304.25;;;8.99;88.94
46291;BME280;32023;44.444;26.006;2023-04-26T05:26:05;99297.94;;;9.09;89.31
46291;BME280;32023;44.444;26.006;2023-04-26T05:28:42;99305.06;;;9.15;88.49
46291;BME280;32023;44.444;26.006;2023-04-26T05:31:22;99297.63;;;9.26;88.85
46291;BME280;32023;44.444;26.006;2023-04-26T05:33:58;99305.84;;;9.46;89.00
46291;BME280;32023;44.444;26.006;2023-04-26T05:36:28;99308.28;;;9.62;88.46
46291;BME280;32023;44.444;26.006;2023-04-26T05:39:01;99304.69;;;9.67;85.82
46291;BME280;32023;44.444;26.006;2023-04-26T05:41:41;99302.75;;;9.78;85.36
46291;BME280;32023;44.444;26.006;2023-04-26T05:44:19;99303.22;;;9.90;84.49
46291;BME280;32023;44.444;26.006;2023-04-26T05:46:51;99314.47;;;10.03;84.50
46291;BME280;32023;44.444;26.006;2023-04-26T05:49:26;99316.91;;;10.15;84.10
46291;BME280;32023;44.444;26.006;2023-04-26T05:52:02;99309.44;;;10.21;83.63
46291;BME280;32023;44.444;26.006;2023-04-26T05:54:29;99307.50;;;10.21;82.25
46291;BME280;32023;44.444;26.006;2023-04-26T05:56:58;99303.06;;;10.30;82.94
46291;BME280;32023;44.444;26.006;2023-04-26T05:59:28;99303.56;;;10.37;82.20
46291;BME280;32023;44.444;26.006;2023-04-26T06:02:00;99299.63;;;10.53;83.08
46291;BME280;32023;44.444;26.006;2023-04-26T06:04:39;99298.75;;;10.58;81.67
46291;BME280;32023;44.444;26.006;2023-04-26T06:07:05;99289.63;;;10.68;81.79
46291;BME280;32023;44.444;26.006;2023-04-26T06:09:35;99291.69;;;10.81;81.19
46291;BME280;32023;44.444;26.006;2023-04-26T06:12:05;99283.91;;;10.93;80.16
46291;BME280;32023;44.444;26.006;2023-04-26T06:14:34;99292.56;;;11.10;79.87
46291;BME280;32023;44.444;26.006;2023-04-26T06:17:05;99280.81;;;11.28;79.12
46291;BME280;32023;44.444;26.006;2023-04-26T06:19:47;99276.38;;;11.32;77.76
46291;BME280;32023;44.444;26.006;2023-04-26T06:22:21;99270.63;;;11.52;78.58
46291;BME280;32023;44.444;26.006;2023-04-26T06:24:49;99262.97;;;11.73;78.05
46291;BME280;32023;44.444;26.006;2023-04-26T06:28:09;99268.31;;;11.88;75.38
46291;BME280;32023;44.444;26.006;2023-04-26T06:34:16;99257.78;;;12.33;73.31
46291;BME280;32023;44.444;26.006;2023-04-26T06:36:45;99278.66;;;12.57;72.54
46291;BME280;32023;44.444;26.006;2023-04-26T06:39:21;99276.63;;;12.82;71.97
46291;BME280;32023;44.444;26.006;2023-04-26T06:42:24;99280.25;;;12.96;69.64
46291;BME280;32023;44.444;26.006;2023-04-26T06:52:42;99280.75;;;13.63;67.92
46291;BME280;32023;44.444;26.006;2023-04-26T06:55:14;99273.16;;;13.82;66.79
46291;BME280;32023;44.444;26.006;2023-04-26T06:58:07;99282.56;;;13.94;65.25
46291;BME280;32023;44.444;26.006;2023-04-26T07:04:19;99284.91;;;14.42;64.41
46291;BME280;32023;44.444;26.006;2023-04-26T07:07:17;99283.47;;;14.44;64.00
46291;BME280;32023;44.444;26.006;2023-04-26T07:09:57;99278.59;;;14.64;63.27
46291;BME280;32023;44.444;26.006;2023-04-26T07:12:26;99281.19;;;14.82;63.51
46291;BME280;32023;44.444;26.006;2023-04-26T07:14:52;99282.78;;;14.97;61.75
46291;BME280;32023;44.444;26.006;2023-04-26T07:17:40;99275.84;;;15.08;59.86
46291;BME280;32023;44.444;26.006;2023-04-26T07:20:16;99285.22;;;15.21;59.45
46291;BME280;32023;44.444;26.006;2023-04-26T07:22:49;99287.25;;;15.37;60.25
46291;BME280;32023;44.444;26.006;2023-04-26T07:25:21;99287.22;;;15.51;60.83
46291;BME280;32023;44.444;26.006;2023-04-26T07:27:59;99282.88;;;15.67;58.77
46291;BME280;32023;44.444;26.006;2023-04-26T07:30:31;99283.78;;;15.85;57.37
46291;BME280;32023;44.444;26.006;2023-04-26T07:33:27;99285.78;;;15.93;58.44
46291;BME280;32023;44.444;26.006;2023-04-26T07:35:55;99290.06;;;16.08;57.97
46291;BME280;32023;44.444;26.006;2023-04-26T07:38:35;99287.03;;;16.26;56.98
46291;BME280;32023;44.444;26.006;2023-04-26T07:41:11;99293.22;;;16.23;57.00
46291;BME280;32023;44.444;26.006;2023-04-26T07:43:44;99293.19;;;16.15;57.01
46291;BME280;32023;44.444;26.006;2023-04-26T07:46:13;99285.97;;;16.05;57.77
46291;BME280;32023;44.444;26.006;2023-04-26T07:48:48;99288.94;;;16.17;58.02
46291;BME280;32023;44.444;26.006;2023-04-26T07:51:31;99296.78;;;16.15;57.00
46291;BME280;32023;44.444;26.006;2023-04-26T07:56:42;99309.72;;;16.20;56.82
46291;BME280;32023;44.444;26.006;2023-04-26T07:59:15;99295.72;;;16.42;56.43
46291;BME280;32023;44.444;26.006;2023-04-26T08:01:41;99298.72;;;16.80;55.59
46291;BME280;32023;44.444;26.006;2023-04-26T08:04:09;99303.47;;;16.88;52.69
46291;BME280;32023;44.444;26.006;2023-04-26T08:06:36;99310.00;;;17.09;53.46
46291;BME280;32023;44.444;26.006;2023-04-26T08:09:04;99299.66;;;17.36;53.70
46291;BME280;32023;44.444;26.006;2023-04-26T08:11:33;99308.78;;;17.53;51.97
46291;BME280;32023;44.444;26.006;2023-04-26T08:14:00;99306.75;;;17.79;50.90
46291;BME280;32023;44.444;26.006;2023-04-26T08:16:45;99306.56;;;17.93;49.56
46291;BME280;32023;44.444;26.006;2023-04-26T08:19:21;99313.13;;;17.89;49.04
46291;BME280;32023;44.444;26.006;2023-04-26T08:21:50;99302.25;;;18.04;47.90
46291;BME280;32023;44.444;26.006;2023-04-26T08:25:16;99299.88;;;18.44;47.87
46291;BME280;32023;44.444;26.006;2023-04-26T08:28:04;99304.44;;;18.78;43.98
46291;BME280;32023;44.444;26.006;2023-04-26T08:30:33;99311.09;;;19.06;44.15
46291;BME280;32023;44.444;26.006;2023-04-26T08:33:16;99304.41;;;19.19;44.08
46291;BME280;32023;44.444;26.006;2023-04-26T08:35:50;99315.72;;;19.44;43.41
46291;BME280;32023;44.444;26.006;2023-04-26T08:38:49;99312.44;;;19.42;43.28
46291;BME280;32023;44.444;26.006;2023-04-26T08:41:41;99314.56;;;19.57;44.59
46291;BME280;32023;44.444;26.006;2023-04-26T08:44:18;99284.81;;;19.73;42.78
46291;BME280;32023;44.444;26.006;2023-04-26T08:47:51;99316.31;;;20.18;42.55
46291;BME280;32023;44.444;26.006;2023-04-26T08:49:53;99313.28;;;20.11;41.82
46291;BME280;32023;44.444;26.006;2023-04-26T08:52:46;99312.81;;;19.97;42.16
46291;BME280;32023;44.444;26.006;2023-04-26T08:55:17;99308.63;;;20.15;41.37
46291;BME280;32023;44.444;26.006;2023-04-26T08:57:58;99318.31;;;20.30;41.72
46291;BME280;32023;44.444;26.006;2023-04-26T09:00:29;99282.78;;;20.43;40.91
46291;BME280;32023;44.444;26.006;2023-04-26T09:03:34;99317.75;;;20.89;39.63
46291;BME280;32023;44.444;26.006;2023-04-26T09:06:01;99317.53;;;20.94;38.95
46291;BME280;32023;44.444;26.006;2023-04-26T09:15:16;99314.47;;;20.47;40.33
46291;BME280;32023;44.444;26.006;2023-04-26T09:21:30;99310.25;;;20.65;40.91
46291;BME280;32023;44.444;26.006;2023-04-26T09:24:02;99321.72;;;21.40;40.35
46291;BME280;32023;44.444;26.006;2023-04-26T09:27:06;99322.00;;;22.09;38.16
46291;BME280;32023;44.444;26.006;2023-04-26T09:34:06;99324.94;;;22.13;37.02
46291;BME280;32023;44.444;26.006;2023-04-26T09:39:50;99318.13;;;22.30;36.41
46291;BME280;32023;44.444;26.006;2023-04-26T09:42:42;99307.03;;;23.03;36.25
46291;BME280;32023;44.444;26.006;2023-04-26T09:45:09;99319.53;;;23.25;35.12
46291;BME280;32023;44.444;26.006;2023-04-26T09:47:55;99311.69;;;23.53;34.54
46291;BME280;32023;44.444;26.006;2023-04-26T09:50:54;99309.78;;;22.99;35.43
46291;BME280;32023;44.444;26.006;2023-04-26T09:54:03;99314.16;;;22.81;35.98
46291;BME280;32023;44.444;26.006;2023-04-26T09:56:34;99309.41;;;24.01;34.78
46291;BME280;32023;44.444;26.006;2023-04-26T09:59:11;99303.22;;;24.89;32.78
46291;BME280;32023;44.444;26.006;2023-04-26T10:01:48;99311.66;;;25.49;30.94
46291;BME280;32023;44.444;26.006;2023-04-26T10:08:05;99308.91;;;24.93;32.49
46291;BME280;32023;44.444;26.006;2023-04-26T10:10:57;99312.44;;;25.50;31.82
46291;BME280;32023;44.444;26.006;2023-04-26T10:13:51;99313.38;;;26.34;30.00
46291;BME280;32023;44.444;26.006;2023-04-26T10:16:26;99312.09;;;26.79;29.61
46291;BME280;32023;44.444;26.006;2023-04-26T10:19:34;99299.31;;;28.18;27.45
46291;BME280;32023;44.444;26.006;2023-04-26T10:22:27;99298.34;;;29.41;25.83
46291;BME280;32023;44.444;26.006;2023-04-26T10:28:07;99293.22;;;28.65;26.56
46291;BME280;32023;44.444;26.006;2023-04-26T10:31:07;99295.88;;;27.45;27.43
46291;BME280;32023;44.444;26.006;2023-04-26T10:34:19;99291.66;;;25.28;31.44
46291;BME280;32023;44.444;26.006;2023-04-26T10:37:26;99293.56;;;24.38;32.70
46291;BME280;32023;44.444;26.006;2023-04-26T10:40:28;99300.72;;;23.86;33.66
46291;BME280;32023;44.444;26.006;2023-04-26T10:43:57;99293.16;;;23.10;35.09
46291;BME280;32023;44.444;26.006;2023-04-26T10:46:49;99305.59;;;22.74;35.62
46291;BME280;32023;44.444;26.006;2023-04-26T10:49:29;99296.31;;;25.13;32.47
46291;BME280;32023;44.444;26.006;2023-04-26T10:55:56;99292.22;;;26.65;29.24
46291;BME280;32023;44.444;26.006;2023-04-26T11:01:33;99292.81;;;28.85;26.26
46291;BME280;32023;44.444;26.006;2023-04-26T11:07:44;99301.19;;;30.07;24.73
46291;BME280;32023;44.444;26.006;2023-04-26T11:10:40;99287.53;;;31.25;23.48
46291;BME280;32023;44.444;26.006;2023-04-26T11:16:14;99290.94;;;33.00;22.13
46291;BME280;32023;44.444;26.006;2023-04-26T11:18:54;99293.28;;;32.12;21.90
46291;BME280;32023;44.444;26.006;2023-04-26T11:21:28;99294.56;;;31.13;22.44
46291;BME280;32023;44.444;26.006;2023-04-26T11:24:15;99295.84;;;29.50;24.48
46291;BME280;32023;44.444;26.006;2023-04-26T11:26:59;99284.22;;;30.00;24.16
46291;BME280;32023;44.444;26.006;2023-04-26T11:29:31;99289.50;;;29.11;24.53
46291;BME280;32023;44.444;26.006;2023-04-26T11:32:17;99288.00;;;28.29;25.44
46291;BME280;32023;44.444;26.006;2023-04-26T11:34:45;99283.13;;;28.29;25.60
46291;BME280;32023;44.444;26.006;2023-04-26T11:37:15;99284.34;;;28.14;27.12
46291;BME280;32023;44.444;26.006;2023-04-26T11:39:47;99280.47;;;27.32;26.89
46291;BME280;32023;44.444;26.006;2023-04-26T11:42:58;99272.44;;;27.41;26.77
46291;BME280;32023;44.444;26.006;2023-04-26T11:45:57;99282.19;;;27.58;27.08
46291;BME280;32023;44.444;26.006;2023-04-26T11:52:02;99289.56;;;25.92;27.80
46291;BME280;32023;44.444;26.006;2023-04-26T11:55:04;99285.19;;;25.98;28.76
46291;BME280;32023;44.444;26.006;2023-04-26T11:58:10;99289.00;;;25.75;29.65
46291;BME280;32023;44.444;26.006;2023-04-26T12:01:04;99294.13;;;26.07;29.57
46291;BME280;32023;44.444;26.006;2023-04-26T12:04:15;99284.13;;;25.72;30.05
46291;BME280;32023;44.444;26.006;2023-04-26T12:06:53;99294.94;;;26.07;29.15
46291;BME280;32023;44.444;26.006;2023-04-26T12:09:38;99288.81;;;24.95;29.45
46291;BME280;32023;44.444;26.006;2023-04-26T12:12:15;99291.59;;;24.16;32.14
46291;BME280;32023;44.444;26.006;2023-04-26T12:15:14;99292.13;;;23.79;32.65
46291;BME280;32023;44.444;26.006;2023-04-26T12:20:38;99284.75;;;22.75;34.25
46291;BME280;32023;44.444;26.006;2023-04-26T12:23:39;99290.00;;;22.26;35.27
46291;BME280;32023;44.444;26.006;2023-04-26T12:26:17;99288.19;;;22.34;36.14
46291;BME280;32023;44.444;26.006;2023-04-26T12:29:31;99247.16;;;22.45;35.39
46291;BME280;32023;44.444;26.006;2023-04-26T12:32:03;99286.94;;;23.01;33.74
46291;BME280;32023;44.444;26.006;2023-04-26T12:34:33;99283.63;;;23.15;34.26
46291;BME280;32023;44.444;26.006;2023-04-26T12:37:16;99286.78;;;23.32;33.29
46291;BME280;32023;44.444;26.006;2023-04-26T12:39:45;99279.66;;;23.58;32.98
46291;BME280;32023;44.444;26.006;2023-04-26T12:42:12;99284.84;;;23.75;33.50
46291;BME280;32023;44.444;26.006;2023-04-26T12:44:53;99299.34;;;23.58;32.95
46291;BME280;32023;44.444;26.006;2023-04-26T12:48:00;99301.38;;;23.80;32.97
46291;BME280;32023;44.444;26.006;2023-04-26T12:50:42;99303.44;;;23.60;33.79
46291;BME280;32023;44.444;26.006;2023-04-26T12:53:45;99311.19;;;23.09;35.17
46291;BME280;32023;44.444;26.006;2023-04-26T12:56:45;99317.03;;;22.50;35.94
46291;BME280;32023;44.444;26.006;2023-04-26T12:59:15;99340.78;;;21.78;36.87
46291;BME280;32023;44.444;26.006;2023-04-26T13:04:57;99326.38;;;20.32;41.00
46291;BME280;32023;44.444;26.006;2023-04-26T13:07:32;99342.28;;;19.62;43.58
46291;BME280;32023;44.444;26.006;2023-04-26T13:10:10;99349.94;;;19.32;45.72
46291;BME280;32023;44.444;26.006;2023-04-26T13:12:51;99342.88;;;18.93;46.65
46291;BME280;32023;44.444;26.006;2023-04-26T13:19:16;99365.00;;;18.02;47.89
46291;BME280;32023;44.444;26.006;2023-04-26T13:22:11;99361.03;;;17.65;48.27
46291;BME280;32023;44.444;26.006;2023-04-26T13:24:59;99372.66;;;17.24;48.45
46291;BME280;32023;44.444;26.006;2023-04-26T13:27:36;99380.34;;;17.27;48.53
46291;BME280;32023;44.444;26.006;2023-04-26T13:30:22;99386.28;;;17.25;48.81
46291;BME280;32023;44.444;26.006;2023-04-26T13:33:01;99392.63;;;17.26;49.33
46291;BME280;32023;44.444;26.006;2023-04-26T13:35:46;99390.84;;;17.21;48.71
46291;BME280;32023;44.444;26.006;2023-04-26T13:38:52;99388.53;;;17.23;49.35
46291;BME280;32023;44.444;26.006;2023-04-26T13:41:40;99394.28;;;17.27;50.08
46291;BME280;32023;44.444;26.006;2023-04-26T13:44:07;99399.00;;;17.26;50.34
46291;BME280;32023;44.444;26.006;2023-04-26T13:46:36;99396.91;;;17.32;50.57
46291;BME280;32023;44.444;26.006;2023-04-26T13:49:05;99397.38;;;17.34;51.21
46291;BME280;32023;44.444;26.006;2023-04-26T13:51:39;99406.53;;;17.34;51.64
46291;BME280;32023;44.444;26.006;2023-04-26T13:54:07;99416.22;;;17.37;51.44
46291;BME280;32023;44.444;26.006;2023-04-26T13:56:33;99413.09;;;17.39;51.48
46291;BME280;32023;44.444;26.006;2023-04-26T13:59:00;99416.03;;;17.33;51.34
46291;BME280;32023;44.444;26.006;2023-04-26T14:01:35;99425.38;;;17.29;51.71
46291;BME280;32023;44.444;26.006;2023-04-26T14:04:14;99418.00;;;17.24;51.89
46291;BME280;32023;44.444;26.006;2023-04-26T14:06:46;99428.97;;;17.12;52.12
46291;BME280;32023;44.444;26.006;2023-04-26T14:09:19;99437.81;;;17.06;52.46
46291;BME280;32023;44.444;26.006;2023-04-26T14:11:54;99439.56;;;16.93;53.10
46291;BME280;32023;44.444;26.006;2023-04-26T14:14:27;99435.47;;;16.82;53.95
46291;BME280;32023;44.444;26.006;2023-04-26T14:17:02;99435.47;;;16.82;54.16
46291;BME280;32023;44.444;26.006;2023-04-26T14:19:31;99436.75;;;16.76;54.95
46291;BME280;32023;44.444;26.006;2023-04-26T14:22:05;99439.69;;;16.71;55.14
46291;BME280;32023;44.444;26.006;2023-04-26T14:24:38;99447.03;;;16.67;56.13
46291;BME280;32023;44.444;26.006;2023-04-26T14:27:05;99451.41;;;16.59;56.61
46291;BME280;32023;44.444;26.006;2023-04-26T14:29:35;99449.78;;;16.58;56.95
46291;BME280;32023;44.444;26.006;2023-04-26T14:32:04;99455.13;;;16.55;57.23
46291;BME280;32023;44.444;26.006;2023-04-26T14:34:33;99458.53;;;16.52;57.71
46291;BME280;32023;44.444;26.006;2023-04-26T14:37:08;99473.75;;;16.46;58.15
46291;BME280;32023;44.444;26.006;2023-04-26T14:39:35;99469.63;;;16.43;58.71
46291;BME280;32023;44.444;26.006;2023-04-26T14:42:04;99461.44;;;16.38;59.06
46291;BME280;32023;44.444;26.006;2023-04-26T14:44:31;99467.94;;;16.33;59.65
46291;BME280;32023;44.444;26.006;2023-04-26T14:46:59;99462.03;;;16.26;60.53
46291;BME280;32023;44.444;26.006;2023-04-26T14:49:25;99464.47;;;16.19;61.12
46291;BME280;32023;44.444;26.006;2023-04-26T14:51:52;99464.09;;;16.12;62.01
46291;BME280;32023;44.444;26.006;2023-04-26T14:54:18;99463.75;;;16.14;62.15
46291;BME280;32023;44.444;26.006;2023-04-26T14:56:50;99471.28;;;16.13;62.39
46291;BME280;32023;44.444;26.006;2023-04-26T14:59:17;99471.72;;;16.07;61.46
46291;BME280;32023;44.444;26.006;2023-04-26T15:01:52;99467.94;;;16.03;60.55
46291;BME280;32023;44.444;26.006;2023-04-26T15:04:22;99473.97;;;15.96;60.16
46291;BME280;32023;44.444;26.006;2023-04-26T15:06:51;99477.69;;;15.92;60.32
46291;BME280;32023;44.444;26.006;2023-04-26T15:09:18;99467.41;;;15.92;60.34
46291;BME280;32023;44.444;26.006;2023-04-26T15:11:44;99475.28;;;15.99;59.77